Time;durP1;ratioP1;P1;durP2;ratioP2;P2;SDS_P1;SDS_P2;PMS_P1;PMS_P2;Temp;Humidity;BMP_temperature;BMP_pressure;BME280_temperature;BME280_humidity;BME280_pressure;Samples;Min_cycle;Max_cycle;Signal;HPM_P1;HPM_P2
2022/01/31 00:02:19;;;;;;;14.82;4.35;;;;;;;1.69;58.24;95295.66;5026652;28;20025;-76
2022/01/31 00:04:45;;;;;;;13.15;3.65;;;;;;;1.61;58.15;95304.22;5026771;28;20017;-76
2022/01/31 00:07:11;;;;;;;11.00;4.50;;;;;;;1.56;58.60;95291.38;5026540;28;20037;-76
2022/01/31 00:09:37;;;;;;;8.60;4.25;;;;;;;1.56;59.25;95299.31;5010066;28;20038;-75
2022/01/31 00:12:08;;;;;;;14.52;4.80;;;;;;;1.56;58.64;95301.09;5009022;28;20033;-76
2022/01/31 00:16:59;;;;;;;11.77;4.07;;;;;;;1.67;59.54;95300.22;5025987;28;20431;-76
2022/01/31 00:19:24;;;;;;;16.35;5.28;;;;;;;1.74;59.09;95309.34;5025215;28;20033;-76
2022/01/31 00:21:49;;;;;;;10.27;4.15;;;;;;;1.74;59.21;95312.00;5027776;28;20322;-76
2022/01/31 00:24:15;;;;;;;13.73;4.53;;;;;;;1.79;58.89;95301.84;5026053;28;20104;-76
2022/01/31 00:26:40;;;;;;;12.98;3.80;;;;;;;1.76;59.20;95312.69;5027448;28;20433;-76
2022/01/31 00:29:06;;;;;;;10.70;4.50;;;;;;;1.75;59.40;95300.44;5026242;28;20022;-75
2022/01/31 00:31:32;;;;;;;14.90;3.70;;;;;;;1.80;59.34;95308.84;5027083;28;20021;-75
2022/01/31 00:33:57;;;;;;;19.20;4.38;;;;;;;1.80;59.04;95303.56;5026580;28;20029;-75
2022/01/31 00:36:23;;;;;;;16.48;3.90;;;;;;;1.84;58.71;95306.78;5026532;28;20036;-74
2022/01/31 00:38:48;;;;;;;24.15;4.15;;;;;;;1.82;58.72;95312.19;5027352;28;20025;-74
2022/01/31 00:41:13;;;;;;;22.20;4.07;;;;;;;1.89;59.39;95306.38;5025495;28;20030;-75
2022/01/31 00:43:39;;;;;;;16.95;4.72;;;;;;;1.92;58.67;95306.16;5027430;28;20034;-75
2022/01/31 00:46:11;;;;;;;20.70;4.10;;;;;;;1.91;58.95;95301.81;5025924;28;20052;-76
2022/01/31 00:48:43;;;;;;;15.65;4.05;;;;;;;1.89;58.41;95311.69;5027084;28;20057;-74
2022/01/31 00:51:09;;;;;;;16.27;4.18;;;;;;;1.94;58.87;95304.22;5026146;28;20116;-75
2022/01/31 00:53:35;;;;;;;10.95;4.03;;;;;;;2.01;58.35;95310.69;5026335;28;20029;-74
2022/01/31 00:56:00;;;;;;;19.95;4.07;;;;;;;1.96;58.30;95316.34;5025508;28;20433;-76
2022/01/31 00:58:25;;;;;;;13.77;3.75;;;;;;;1.98;58.04;95308.28;5025526;28;20242;-76
2022/01/31 01:00:51;;;;;;;15.65;3.97;;;;;;;1.98;58.27;95310.94;5025785;28;20117;-75
2022/01/31 01:03:16;;;;;;;10.65;3.58;;;;;;;1.98;58.26;95311.75;5007706;28;20029;-76
2022/01/31 01:05:42;;;;;;;14.18;3.67;;;;;;;1.83;57.34;95313.88;5025465;28;20025;-76
2022/01/31 01:08:07;;;;;;;11.10;4.00;;;;;;;1.83;57.67;95321.81;5025779;28;20033;-76
2022/01/31 01:10:33;;;;;;;7.63;3.30;;;;;;;1.94;57.10;95313.00;5026510;28;20032;-76
2022/01/31 01:12:58;;;;;;;10.70;3.45;;;;;;;1.91;57.69;95325.63;5026368;28;20037;-77
2022/01/31 01:15:24;;;;;;;13.85;3.80;;;;;;;1.91;57.45;95330.91;5026216;28;20029;-75
2022/01/31 01:17:49;;;;;;;16.95;4.00;;;;;;;1.95;57.16;95321.78;5026984;28;20032;-75
2022/01/31 01:20:15;;;;;;;14.05;3.80;;;;;;;1.97;57.07;95325.13;5025855;28;20468;-75
2022/01/31 01:22:41;;;;;;;8.30;3.63;;;;;;;1.88;56.81;95316.16;5025816;28;20071;-75
2022/01/31 01:25:09;;;;;;;7.43;3.30;;;;;;;1.95;57.15;95319.94;5024692;28;20081;-74
2022/01/31 01:27:34;;;;;;;11.50;3.88;;;;;;;1.99;55.89;95315.25;5026131;28;20029;-75
2022/01/31 01:30:00;;;;;;;9.55;3.40;;;;;;;1.97;56.35;95312.75;5026399;28;20403;-76
2022/01/31 01:32:28;;;;;;;12.77;3.22;;;;;;;2.00;56.18;95306.34;5024649;28;20504;-76
2022/01/31 01:34:58;;;;;;;15.18;3.28;;;;;;;1.98;55.84;95301.19;5025407;28;20044;-76
2022/01/31 01:37:24;;;;;;;11.18;3.13;;;;;;;2.05;56.21;95306.81;5025383;28;20037;-75
2022/01/31 01:39:49;;;;;;;11.23;2.75;;;;;;;2.01;55.31;95312.47;5026910;28;20049;-75
2022/01/31 01:42:15;;;;;;;4.20;2.83;;;;;;;1.93;55.19;95307.84;5025000;28;20032;-75
2022/01/31 01:44:47;;;;;;;9.75;3.00;;;;;;;1.92;55.56;95306.97;5026501;28;20021;-75
2022/01/31 01:47:16;;;;;;;8.70;4.25;;;;;;;1.99;55.13;95307.31;5024405;28;20029;-75
2022/01/31 01:49:42;;;;;;;12.07;2.88;;;;;;;1.91;55.66;95304.47;5024515;28;20026;-75
2022/01/31 01:52:08;;;;;;;9.05;2.95;;;;;;;2.01;55.42;95315.13;5025644;28;20018;-74
2022/01/31 01:54:33;;;;;;;6.72;3.05;;;;;;;1.95;55.42;95311.19;5027737;28;20025;-74
2022/01/31 01:56:59;;;;;;;8.65;2.75;;;;;;;1.85;55.22;95317.22;5029077;28;20034;-75
2022/01/31 01:59:25;;;;;;;8.77;2.72;;;;;;;1.91;54.41;95317.69;5027303;28;20056;-76
2022/01/31 02:01:50;;;;;;;12.98;2.88;;;;;;;1.90;54.58;95308.09;5012757;28;20368;-76
2022/01/31 02:04:16;;;;;;;7.50;2.88;;;;;;;1.85;55.02;95321.69;5029312;28;20022;-76
2022/01/31 02:06:42;;;;;;;9.00;2.88;;;;;;;1.94;54.73;95314.78;5011751;28;20411;-75
2022/01/31 02:09:07;;;;;;;7.78;2.78;;;;;;;2.03;54.30;95319.31;5011926;28;20033;-76
2022/01/31 02:11:33;;;;;;;7.95;2.40;;;;;;;2.03;54.97;95323.78;5011101;28;20474;-75
2022/01/31 02:13:58;;;;;;;10.73;3.08;;;;;;;2.05;54.47;95311.25;5030082;28;20029;-75
2022/01/31 02:16:24;;;;;;;6.18;2.67;;;;;;;2.06;54.06;95316.41;5027273;28;20026;-77
2022/01/31 02:18:52;;;;;;;9.45;3.30;;;;;;;2.09;53.92;95313.53;5030136;28;20021;-75
2022/01/31 02:21:17;;;;;;;9.25;2.97;;;;;;;2.07;53.68;95304.03;5027390;28;20145;-75
2022/01/31 02:23:43;;;;;;;9.95;3.08;;;;;;;1.99;54.09;95317.91;5011722;28;20100;-75
2022/01/31 02:26:08;;;;;;;7.60;2.58;;;;;;;1.99;53.78;95307.31;5027767;28;20040;-75
2022/01/31 02:28:36;;;;;;;7.03;2.83;;;;;;;2.00;53.92;95309.00;5010934;28;20029;-75
2022/01/31 02:31:02;;;;;;;6.82;2.58;;;;;;;1.92;53.71;95300.88;5029467;28;20392;-75
2022/01/31 02:33:28;;;;;;;14.50;2.60;;;;;;;1.97;53.97;95307.44;5026939;28;20108;-75
2022/01/31 02:35:55;;;;;;;10.05;2.72;;;;;;;1.89;54.22;95307.25;5028613;28;20029;-75
2022/01/31 02:38:21;;;;;;;18.27;3.60;;;;;;;1.93;54.46;95329.84;5010737;28;20053;-75
2022/01/31 02:40:46;;;;;;;8.20;2.88;;;;;;;1.97;54.70;95325.13;5027904;28;20052;-75
2022/01/31 02:43:18;;;;;;;14.15;2.97;;;;;;;1.81;53.88;95325.53;5028688;28;20417;-75
2022/01/31 02:45:43;;;;;;;7.07;2.70;;;;;;;1.88;54.10;95331.16;5011105;28;20029;-75
2022/01/31 02:48:09;;;;;;;9.90;2.50;;;;;;;1.88;54.19;95326.72;5011169;28;20025;-76
2022/01/31 02:50:34;;;;;;;5.63;2.33;;;;;;;1.93;53.87;95326.34;5028216;28;20030;-74
2022/01/31 02:53:11;;;;;;;5.85;2.50;;;;;;;1.93;54.19;95334.28;5029369;28;20206;-75
2022/01/31 02:55:44;;;;;;;6.93;2.70;;;;;;;1.98;53.74;95337.41;5026797;28;20029;-75
2022/01/31 02:58:10;;;;;;;;;;;;;;;1.95;54.29;95332.38;5012009;28;20045;-75
2022/01/31 03:00:36;;;;;;;4.55;2.20;;;;;;;1.85;54.31;95327.78;5028218;28;19917;-74
2022/01/31 03:03:01;;;;;;;11.15;3.00;;;;;;;1.91;55.01;95325.63;5026836;28;20404;-74
2022/01/31 03:05:27;;;;;;;11.02;2.55;;;;;;;1.96;53.83;95329.59;5010039;28;20029;-75
2022/01/31 03:07:52;;;;;;;7.70;3.00;;;;;;;1.88;54.82;95336.47;5010065;28;20496;-75
2022/01/31 03:10:18;;;;;;;8.15;2.58;;;;;;;1.93;54.27;95329.00;5011481;28;20045;-76
2022/01/31 03:12:43;;;;;;;8.23;2.50;;;;;;;1.95;54.47;95319.13;5027428;28;20476;-75
2022/01/31 03:15:09;;;;;;;8.88;2.58;;;;;;;2.00;54.73;95327.50;5029174;28;20021;-74
2022/01/31 03:17:35;;;;;;;6.40;2.20;;;;;;;2.04;53.57;95328.09;5026370;28;20038;-76
2022/01/31 03:20:00;;;;;;;6.03;2.45;;;;;;;1.96;53.33;95328.75;5028407;28;20021;-76
2022/01/31 03:22:26;;;;;;;8.82;2.45;;;;;;;1.97;52.59;95341.00;5026804;28;20124;-76
2022/01/31 03:24:51;;;;;;;7.35;2.70;;;;;;;1.92;53.76;95327.31;5026623;28;20025;-76
2022/01/31 03:27:16;;;;;;;9.45;2.30;;;;;;;1.84;53.86;95323.47;5027188;28;20492;-76
2022/01/31 03:29:42;;;;;;;7.65;3.13;;;;;;;1.93;52.96;95329.84;5025979;28;20870;-76
2022/01/31 03:32:08;;;;;;;5.68;2.55;;;;;;;1.88;53.64;95324.09;4994733;28;20040;-76
2022/01/31 03:34:33;;;;;;;7.50;2.97;;;;;;;1.96;53.22;95324.31;5027228;28;20033;-74
2022/01/31 03:36:59;;;;;;;6.63;2.42;;;;;;;1.90;54.22;95323.97;5026959;28;20033;-74
2022/01/31 03:39:24;;;;;;;11.52;3.22;;;;;;;1.97;53.58;95325.13;5027711;28;20029;-75
2022/01/31 03:41:49;;;;;;;7.25;2.67;;;;;;;1.97;53.92;95325.97;5026442;28;20424;-75
2022/01/31 03:44:15;;;;;;;10.45;3.33;;;;;;;1.87;53.68;95332.16;5026644;28;20505;-75
2022/01/31 03:46:40;;;;;;;6.28;2.55;;;;;;;1.91;53.50;95330.91;5026262;28;20025;-74
2022/01/31 03:49:06;;;;;;;8.45;2.30;;;;;;;1.93;53.88;95329.00;5010225;28;20095;-74
2022/01/31 03:51:31;;;;;;;5.15;2.00;;;;;;;2.01;53.77;95326.56;5026849;28;20053;-74
2022/01/31 03:53:57;;;;;;;8.13;2.78;;;;;;;1.89;53.78;95328.41;5026698;28;20025;-74
2022/01/31 03:56:22;;;;;;;8.68;2.58;;;;;;;2.00;53.75;95318.75;5026942;28;20028;-74
2022/01/31 03:58:47;;;;;;;6.75;2.33;;;;;;;1.78;53.70;95326.63;5009899;28;20045;-74
2022/01/31 04:01:13;;;;;;;11.15;2.78;;;;;;;1.82;53.86;95332.53;5025960;28;20024;-76
2022/01/31 04:03:38;;;;;;;8.88;2.50;;;;;;;1.87;53.92;95324.22;5026213;28;20029;-75
2022/01/31 04:06:04;;;;;;;8.30;2.50;;;;;;;1.91;53.94;95326.47;5027455;28;20535;-75
2022/01/31 04:08:29;;;;;;;10.68;3.20;;;;;;;1.98;53.49;95321.53;5026950;28;20083;-75
2022/01/31 04:10:55;;;;;;;10.00;2.63;;;;;;;2.00;53.44;95335.44;5026451;28;20615;-75
2022/01/31 04:13:20;;;;;;;6.25;2.58;;;;;;;2.01;53.64;95325.72;5026604;28;20488;-75
2022/01/31 04:15:46;;;;;;;11.18;2.80;;;;;;;2.02;52.77;95330.88;5027425;28;20110;-76
2022/01/31 04:18:11;;;;;;;11.80;2.65;;;;;;;1.98;53.37;95335.56;5026651;28;20502;-74
2022/01/31 04:20:37;;;;;;;6.80;2.63;;;;;;;1.99;53.15;95336.41;5026009;28;20025;-75
2022/01/31 04:23:09;;;;;;;9.90;2.45;;;;;;;2.00;53.51;95339.91;5025449;28;20025;-75
2022/01/31 04:31:15;;;;;;;8.63;3.25;;;;;;;1.93;53.67;95334.28;5020024;28;20071;-75
2022/01/31 04:33:41;;;;;;;11.88;3.10;;;;;;;1.88;54.36;95329.38;5013138;28;20128;-75
2022/01/31 04:36:06;;;;;;;6.85;2.28;;;;;;;1.85;55.32;95338.38;5009132;28;20051;-76
2022/01/31 04:38:32;;;;;;;9.15;3.25;;;;;;;1.64;55.42;95342.78;5025318;28;20415;-74
2022/01/31 04:40:57;;;;;;;11.05;3.25;;;;;;;1.65;55.20;95339.16;5026064;28;20036;-75
2022/01/31 04:43:23;;;;;;;14.27;3.42;;;;;;;1.65;55.37;95337.38;5024779;28;20504;-74
2022/01/31 04:45:49;;;;;;;10.23;3.97;;;;;;;1.65;55.84;95329.44;5027380;28;20511;-75
2022/01/31 04:48:15;;;;;;;7.15;3.13;;;;;;;1.68;55.43;95328.34;5025619;28;20049;-76
2022/01/31 04:50:42;;;;;;;7.50;3.35;;;;;;;1.72;56.02;95324.50;5025642;28;20026;-75
2022/01/31 04:53:07;;;;;;;8.13;2.72;;;;;;;1.62;56.15;95327.03;5024760;28;20120;-75
2022/01/31 04:55:35;;;;;;;7.85;3.20;;;;;;;1.63;56.37;95330.53;5025349;28;20614;-75
2022/01/31 04:58:00;;;;;;;11.10;2.90;;;;;;;1.73;55.84;95323.53;5026539;28;20116;-75
2022/01/31 05:00:26;;;;;;;5.55;3.00;;;;;;;1.72;56.11;95325.34;5024379;28;20045;-75
2022/01/31 05:02:51;;;;;;;10.45;2.60;;;;;;;1.64;55.76;95318.97;5025817;28;20049;-76
2022/01/31 05:05:16;;;;;;;7.40;2.50;;;;;;;1.38;55.64;95325.41;5024153;28;20084;-76
2022/01/31 05:07:42;;;;;;;7.32;3.22;;;;;;;1.45;56.12;95320.47;5026913;28;20028;-75
2022/01/31 05:10:08;;;;;;;9.40;3.00;;;;;;;1.43;55.77;95328.53;5024359;28;20025;-75
2022/01/31 05:12:33;;;;;;;10.48;3.92;;;;;;;1.38;55.99;95327.22;5026343;28;20036;-75
2022/01/31 05:14:59;;;;;;;7.43;3.70;;;;;;;1.38;56.29;95314.84;5026668;28;20029;-74
2022/01/31 05:17:24;;;;;;;12.50;4.10;;;;;;;1.32;56.96;95315.34;5025616;28;20083;-74
2022/01/31 05:19:50;;;;;;;8.10;3.90;;;;;;;1.35;56.92;95305.34;5026673;28;20036;-75
2022/01/31 05:22:15;;;;;;;10.52;3.13;;;;;;;1.26;57.05;95315.81;5025318;28;20079;-75
2022/01/31 05:24:40;;;;;;;7.60;3.47;;;;;;;1.13;57.34;95310.69;5025556;28;20025;-77
2022/01/31 05:27:06;;;;;;;6.63;3.00;;;;;;;1.10;56.96;95306.47;5023349;28;20029;-78
2022/01/31 05:29:31;;;;;;;10.02;3.70;;;;;;;1.04;57.74;95317.50;5024756;28;20030;-75
2022/01/31 05:31:57;;;;;;;11.85;3.50;;;;;;;1.02;57.96;95307.06;5025716;28;20057;-75
2022/01/31 05:34:24;;;;;;;6.18;3.08;;;;;;;0.87;57.81;95311.78;5024490;28;20030;-76
2022/01/31 05:36:51;;;;;;;9.88;4.13;;;;;;;0.91;57.86;95313.19;5024879;28;20048;-75
2022/01/31 05:39:17;;;;;;;5.68;2.95;;;;;;;0.78;58.26;95313.31;5023986;28;20036;-74
2022/01/31 05:41:42;;;;;;;8.45;3.85;;;;;;;0.91;57.59;95309.72;5008762;28;20034;-75
2022/01/31 05:44:08;;;;;;;9.02;3.40;;;;;;;0.93;57.37;95310.44;5023911;28;20034;-76
2022/01/31 05:46:33;;;;;;;7.63;3.53;;;;;;;0.74;57.89;95311.88;5026193;28;20030;-75
2022/01/31 05:48:59;;;;;;;6.50;3.50;;;;;;;0.68;58.63;95317.63;5024035;28;20037;-75
2022/01/31 05:51:24;;;;;;;14.82;4.20;;;;;;;0.65;59.04;95326.63;5025844;28;20021;-75
2022/01/31 05:53:50;;;;;;;10.82;3.75;;;;;;;0.73;58.61;95333.94;5025585;28;20039;-75
2022/01/31 05:56:16;;;;;;;7.85;3.70;;;;;;;0.79;58.87;95327.38;5025562;28;20052;-76
2022/01/31 05:58:42;;;;;;;6.28;3.55;;;;;;;0.95;57.63;95327.00;5008137;28;20516;-76
2022/01/31 06:01:07;;;;;;;9.55;4.07;;;;;;;1.02;58.09;95330.84;5007296;28;20064;-75
2022/01/31 06:03:33;;;;;;;6.82;3.65;;;;;;;1.12;57.44;95330.97;5024867;28;20033;-76
2022/01/31 06:05:59;;;;;;;10.05;4.22;;;;;;;1.23;57.23;95328.31;5025100;28;20087;-75
2022/01/31 06:08:24;;;;;;;11.93;4.60;;;;;;;1.22;56.84;95333.72;5025920;28;20139;-75
2022/01/31 06:10:50;;;;;;;7.57;3.90;;;;;;;1.22;57.13;95328.44;5024138;28;20492;-76
2022/01/31 06:13:27;;;;;;;8.00;3.17;;;;;;;1.30;56.57;95323.38;5025862;28;20506;-75
2022/01/31 06:15:53;;;;;;;10.57;3.90;;;;;;;1.45;55.97;95317.84;5026087;28;20083;-76
2022/01/31 06:18:18;;;;;;;16.75;3.83;;;;;;;1.62;55.16;95315.63;5023258;28;20041;-76
2022/01/31 06:20:44;;;;;;;13.95;5.68;;;;;;;1.73;54.53;95310.28;5026086;28;20389;-78
2022/01/31 06:23:10;;;;;;;10.35;4.32;;;;;;;1.89;54.32;95306.38;5024897;28;20075;-75
2022/01/31 06:25:35;;;;;;;8.43;4.22;;;;;;;2.03;54.11;95307.91;5008243;28;20029;-74
2022/01/31 06:28:01;;;;;;;13.15;3.65;;;;;;;2.14;53.82;95299.06;5025121;28;20030;-76
2022/01/31 06:30:26;;;;;;;10.75;3.38;;;;;;;2.31;53.16;95293.22;5025588;28;20021;-74
2022/01/31 06:32:53;;;;;;;6.70;2.45;;;;;;;2.43;52.53;95301.09;5024110;28;20033;-76
2022/01/31 06:35:18;;;;;;;9.43;3.00;;;;;;;2.33;52.24;95301.88;5007826;28;20030;-76
2022/01/31 06:37:44;;;;;;;7.93;3.60;;;;;;;2.46;51.60;95311.41;5025893;28;20025;-75
2022/01/31 06:40:09;;;;;;;9.32;3.20;;;;;;;2.74;51.85;95316.19;5028563;28;20412;-79
2022/01/31 06:42:35;;;;;;;8.77;3.38;;;;;;;2.83;50.55;95308.28;5029423;28;20506;-79
2022/01/31 06:45:01;;;;;;;10.43;3.65;;;;;;;2.89;50.10;95306.06;5010391;28;20083;-76
2022/01/31 06:47:27;;;;;;;10.13;3.60;;;;;;;2.90;50.34;95315.69;4995165;28;20088;-76
2022/01/31 06:49:52;;;;;;;10.75;3.88;;;;;;;2.96;50.16;95309.88;5028333;28;20037;-79
2022/01/31 06:52:18;;;;;;;10.63;4.70;;;;;;;3.00;50.14;95311.28;5027087;28;20103;-76
2022/01/31 06:54:44;;;;;;;11.13;4.47;;;;;;;2.92;49.90;95311.09;5027374;28;20029;-75
2022/01/31 06:57:10;;;;;;;10.98;4.20;;;;;;;3.16;49.92;95305.47;5027917;28;20117;-76
2022/01/31 06:59:35;;;;;;;8.93;3.95;;;;;;;3.31;49.22;95287.41;4994717;28;20342;-75
2022/01/31 07:02:00;;;;;;;7.30;2.83;;;;;;;3.51;49.12;95286.59;5026526;28;20034;-75
2022/01/31 07:04:26;;;;;;;7.15;3.47;;;;;;;3.45;48.37;95278.22;5029195;28;20036;-75
2022/01/31 07:06:51;;;;;;;11.65;3.08;;;;;;;3.54;48.21;95278.38;5026522;28;20030;-74
2022/01/31 07:09:17;;;;;;;8.27;2.97;;;;;;;3.68;47.86;95261.22;5028583;28;20032;-77
2022/01/31 07:11:43;;;;;;;11.55;3.97;;;;;;;3.83;47.60;95265.16;5027056;28;20029;-77
2022/01/31 07:14:29;;;;;;;12.07;3.60;;;;;;;3.57;48.23;95270.97;5026589;28;20112;-79
2022/01/31 07:16:54;;;;;;;9.18;3.70;;;;;;;3.73;48.05;95274.91;5027783;28;20580;-75
2022/01/31 07:19:22;;;;;;;7.97;3.40;;;;;;;3.97;47.13;95270.19;5026230;28;20072;-74
2022/01/31 07:21:50;;;;;;;14.35;4.03;;;;;;;3.77;46.85;95272.81;5027105;28;20079;-75
2022/01/31 07:26:43;;;;;;;8.57;3.25;;;;;;;4.06;46.66;95272.81;5028381;28;20459;-75
2022/01/31 07:29:08;;;;;;;9.10;3.05;;;;;;;4.23;46.49;95265.13;5026995;28;20048;-75
2022/01/31 07:31:34;;;;;;;9.15;2.92;;;;;;;4.22;45.98;95252.81;5025821;28;20037;-74
2022/01/31 07:34:00;;;;;;;9.82;2.83;;;;;;;4.07;46.36;95265.69;5010652;28;20036;-75
2022/01/31 07:36:25;;;;;;;6.72;2.88;;;;;;;4.04;46.31;95260.66;5025981;28;20032;-76
2022/01/31 07:38:51;;;;;;;6.00;2.85;;;;;;;4.26;46.50;95254.22;5027060;28;20033;-76
2022/01/31 07:41:16;;;;;;;14.05;4.50;;;;;;;4.29;45.90;95245.09;5025992;28;20424;-75
2022/01/31 07:43:43;;;;;;;9.50;3.65;;;;;;;4.23;46.75;95253.66;5010400;28;20033;-75
2022/01/31 07:46:13;;;;;;;7.55;3.45;;;;;;;4.39;46.11;95248.59;5027244;28;20030;-76
2022/01/31 07:48:39;;;;;;;7.80;3.13;;;;;;;4.33;45.76;95250.03;5026063;28;20056;-76
2022/01/31 07:51:04;;;;;;;13.05;3.42;;;;;;;4.50;45.57;95239.63;5025722;28;20025;-76
2022/01/31 07:53:30;;;;;;;9.55;3.75;;;;;;;4.75;45.32;95247.09;5008982;28;20029;-76
2022/01/31 07:55:55;;;;;;;9.52;3.00;;;;;;;4.94;44.70;95240.88;5010331;28;20100;-75
2022/01/31 07:58:20;;;;;;;7.57;3.13;;;;;;;5.17;45.13;95246.66;5026962;28;20467;-75
2022/01/31 08:00:46;;;;;;;6.25;3.08;;;;;;;5.20;44.15;95248.16;5010189;28;20037;-76
2022/01/31 08:03:12;;;;;;;12.32;3.85;;;;;;;5.12;44.27;95237.44;5009197;28;20532;-76
2022/01/31 08:05:37;;;;;;;5.78;2.60;;;;;;;5.13;43.41;95239.94;5027440;28;20029;-75
2022/01/31 08:08:03;;;;;;;12.15;2.95;;;;;;;5.30;42.90;95240.13;5027128;28;20431;-78
2022/01/31 08:10:29;;;;;;;7.85;3.05;;;;;;;5.18;42.53;95239.50;5026992;28;20029;-76
2022/01/31 08:12:55;;;;;;;5.55;2.78;;;;;;;5.37;42.25;95238.53;5027519;28;20037;-76
2022/01/31 08:15:27;;;;;;;9.63;2.85;;;;;;;5.37;42.91;95235.06;5008711;28;20022;-75
2022/01/31 08:17:53;;;;;;;7.80;2.77;;;;;;;5.27;42.11;95219.97;5027657;28;20036;-76
2022/01/31 08:20:18;;;;;;;8.45;2.75;;;;;;;5.15;42.39;95224.69;5008445;28;20021;-77
2022/01/31 08:22:44;;;;;;;7.38;2.67;;;;;;;4.98;43.19;95223.63;5027422;28;20029;-76
2022/01/31 08:25:14;;;;;;;11.73;3.80;;;;;;;5.09;43.33;95219.13;5026582;28;20029;-77
2022/01/31 08:27:45;;;;;;;7.18;3.20;;;;;;;5.30;42.58;95217.03;5026855;28;20049;-77
2022/01/31 08:30:15;;;;;;;7.88;3.10;;;;;;;5.30;42.13;95224.19;5010265;28;20025;-76
2022/01/31 08:32:45;;;;;;;7.70;2.70;;;;;;;5.17;41.71;95212.09;5025983;28;20033;-77
2022/01/31 08:37:55;;;;;;;7.93;3.00;;;;;;;5.01;42.57;95212.72;5025990;28;20128;-78
2022/01/31 08:40:21;;;;;;;9.25;3.00;;;;;;;5.14;42.13;95223.00;5008435;28;20467;-76
2022/01/31 08:42:46;;;;;;;6.57;2.80;;;;;;;5.16;41.52;95220.19;5025066;28;20472;-76
2022/01/31 08:45:12;;;;;;;6.25;3.33;;;;;;;5.38;41.65;95210.13;5026069;28;20029;-76
2022/01/31 08:47:41;;;;;;;9.00;2.72;;;;;;;4.94;40.70;95208.97;5027133;28;20029;-79
2022/01/31 08:50:08;;;;;;;9.57;2.88;;;;;;;4.61;41.32;95209.38;4992746;28;20168;-78
2022/01/31 08:52:33;;;;;;;9.20;3.38;;;;;;;4.72;41.60;95211.03;4992969;28;20033;-76
2022/01/31 08:54:59;;;;;;;9.15;3.05;;;;;;;4.46;42.60;95211.69;5024558;28;20037;-75
2022/01/31 08:57:24;;;;;;;8.80;3.78;;;;;;;4.39;42.48;95222.03;5024872;28;20037;-77
2022/01/31 08:59:51;;;;;;;6.10;2.58;;;;;;;4.42;41.70;95232.38;5008882;28;20117;-76
2022/01/31 09:02:19;;;;;;;7.13;2.70;;;;;;;4.14;42.29;95215.53;5025965;28;20415;-75
2022/01/31 09:07:12;;;;;;;6.15;2.60;;;;;;;4.60;41.83;95209.53;5025870;28;20087;-75
2022/01/31 09:09:38;;;;;;;5.97;2.60;;;;;;;4.68;40.51;95204.31;5027029;28;20033;-76
2022/01/31 09:12:06;;;;;;;5.45;2.10;;;;;;;4.64;40.91;95202.97;5025683;28;20025;-76
2022/01/31 09:14:31;;;;;;;10.00;2.55;;;;;;;4.74;40.54;95189.63;5025031;28;20434;-76
2022/01/31 09:16:57;;;;;;;8.13;2.20;;;;;;;4.91;40.71;95193.31;5026077;28;20029;-76
2022/01/31 09:19:23;;;;;;;15.73;2.95;;;;;;;4.97;40.87;95203.38;5024658;28;20026;-74
2022/01/31 09:21:49;;;;;;;10.23;2.70;;;;;;;5.03;40.08;95199.28;5025415;28;20235;-76
2022/01/31 09:24:14;;;;;;;8.18;3.10;;;;;;;4.78;40.39;95189.19;5007640;28;20496;-75
2022/01/31 09:26:40;;;;;;;6.30;2.95;;;;;;;4.94;40.51;95187.72;5027001;28;20060;-75
2022/01/31 09:29:05;;;;;;;9.95;3.53;;;;;;;4.95;39.59;95178.75;5025221;28;20037;-76
2022/01/31 09:31:30;;;;;;;7.13;3.00;;;;;;;5.05;40.70;95176.88;5026262;28;20091;-76
2022/01/31 09:33:56;;;;;;;9.93;3.10;;;;;;;5.14;40.27;95169.81;5024368;28;20103;-75
2022/01/31 09:36:22;;;;;;;6.45;2.70;;;;;;;5.32;41.69;95169.00;5024855;28;20470;-75
2022/01/31 09:38:48;;;;;;;9.52;2.83;;;;;;;5.49;39.80;95167.34;5024777;28;20105;-75
2022/01/31 09:41:17;;;;;;;9.00;3.72;;;;;;;5.27;39.54;95165.97;5025671;28;20034;-76
2022/01/31 09:48:41;;;;;;;7.05;2.92;;;;;;;5.38;40.87;95133.00;5026293;28;20086;-75
2022/01/31 09:51:08;;;;;;;11.63;3.30;;;;;;;5.55;41.35;95137.47;5025325;28;20029;-75
2022/01/31 09:53:54;;;;;;;9.57;3.22;;;;;;;5.48;40.44;95140.91;5024583;28;20032;-75
2022/01/31 09:56:25;;;;;;;7.65;2.90;;;;;;;5.21;40.13;95140.81;5024633;28;20504;-76
2022/01/31 09:58:52;;;;;;;8.80;3.58;;;;;;;5.10;40.54;95119.75;5007568;28;20069;-75
2022/01/31 10:01:19;;;;;;;5.32;2.65;;;;;;;5.06;40.51;95137.84;5008883;28;20041;-76
2022/01/31 10:03:55;;;;;;;7.70;2.80;;;;;;;4.76;41.08;95127.38;5007553;28;20088;-76
2022/01/31 10:06:28;;;;;;;9.05;3.25;;;;;;;4.79;41.77;95108.47;5024989;28;20053;-75
2022/01/31 10:09:07;;;;;;;9.98;2.97;;;;;;;4.60;41.60;95105.94;5024322;28;20038;-75
2022/01/31 10:11:45;;;;;;;7.28;2.83;;;;;;;4.43;41.00;95090.63;5007374;28;20403;-76
2022/01/31 10:17:11;;;;;;;13.13;3.35;;;;;;;4.27;42.01;95072.69;5014671;28;20426;-74
2022/01/31 10:19:42;;;;;;;7.93;2.72;;;;;;;4.25;42.35;95066.69;5012207;28;20036;-76
2022/01/31 10:22:10;;;;;;;11.90;3.28;;;;;;;4.37;41.45;95062.00;5028262;28;20022;-75
2022/01/31 10:24:36;;;;;;;10.30;3.55;;;;;;;4.47;41.92;95056.66;5027220;28;20056;-75
2022/01/31 10:27:16;;;;;;;14.38;4.25;;;;;;;4.66;42.28;95049.56;5030083;28;20400;-76
2022/01/31 10:29:43;;;;;;;7.18;3.33;;;;;;;4.75;42.20;95048.66;5028160;28;20030;-75
2022/01/31 10:32:17;;;;;;;5.60;2.67;;;;;;;4.87;41.24;95033.31;5028279;28;20017;-74
2022/01/31 10:34:53;;;;;;;9.85;3.90;;;;;;;4.93;40.70;95030.06;5011439;28;20488;-75
2022/01/31 10:37:21;;;;;;;5.82;3.13;;;;;;;4.91;40.65;95017.91;5027661;28;20029;-75
2022/01/31 10:50:58;;;;;;;6.00;2.50;;;;;;;5.15;39.22;94977.44;5013058;28;20128;-75
2022/01/31 10:53:24;;;;;;;6.82;2.90;;;;;;;5.09;40.24;94970.06;5029543;28;20044;-75
2022/01/31 10:55:54;;;;;;;6.78;2.67;;;;;;;5.10;40.38;94958.44;5028087;28;20113;-76
2022/01/31 10:58:19;;;;;;;9.88;3.63;;;;;;;5.11;40.58;94959.28;5027437;28;20065;-75
2022/01/31 11:00:45;;;;;;;14.13;3.75;;;;;;;5.12;39.29;94960.94;5026890;28;20404;-75
2022/01/31 11:03:32;;;;;;;11.00;3.90;;;;;;;5.04;39.20;94954.59;5026909;28;20424;-79
2022/01/31 11:06:01;;;;;;;11.98;4.45;;;;;;;5.12;39.49;94961.78;5027756;28;20112;-76
2022/01/31 11:08:27;;;;;;;8.30;3.47;;;;;;;5.24;39.82;94954.38;5010549;28;20033;-76
2022/01/31 11:10:57;;;;;;;9.32;2.83;;;;;;;5.30;39.38;94947.63;5011144;28;20033;-75
2022/01/31 11:13:25;;;;;;;8.05;2.90;;;;;;;5.44;40.00;94943.53;5026715;28;20033;-76
2022/01/31 11:15:50;;;;;;;9.50;3.45;;;;;;;5.52;39.61;94946.25;5026921;28;20109;-75
2022/01/31 11:18:15;;;;;;;12.27;3.35;;;;;;;5.54;39.58;94933.63;5028081;28;20056;-75
2022/01/31 11:20:44;;;;;;;9.88;3.00;;;;;;;5.59;39.25;94932.31;5026472;28;20423;-78
2022/01/31 11:23:10;;;;;;;8.73;3.13;;;;;;;5.42;39.59;94942.84;4994380;28;20038;-79
2022/01/31 11:25:37;;;;;;;11.57;3.90;;;;;;;5.36;39.01;94930.19;5008640;28;20879;-82
2022/01/31 11:28:03;;;;;;;10.45;3.47;;;;;;;5.51;39.15;94930.44;5010570;28;20029;-76
2022/01/31 11:30:28;;;;;;;10.90;3.20;;;;;;;5.63;38.21;94925.69;5026146;28;20056;-76
2022/01/31 11:32:54;;;;;;;5.75;3.15;;;;;;;5.61;38.45;94911.72;5026832;28;20032;-76
2022/01/31 11:35:20;;;;;;;9.73;3.53;;;;;;;5.62;37.87;94916.03;5027789;28;20021;-76
2022/01/31 11:37:45;;;;;;;6.28;2.90;;;;;;;5.73;38.14;94889.16;5026579;28;20028;-75
2022/01/31 11:40:11;;;;;;;8.82;2.60;;;;;;;5.76;38.81;94886.16;5028345;28;20033;-75
2022/01/31 11:42:40;;;;;;;4.70;2.65;;;;;;;5.77;37.30;94881.69;5025491;28;20029;-76
2022/01/31 11:45:22;;;;;;;6.85;3.13;;;;;;;5.73;38.60;94873.19;4994688;28;20021;-78
2022/01/31 11:47:49;;;;;;;5.80;2.90;;;;;;;5.88;38.61;94877.88;5010456;28;20053;-78
2022/01/31 11:50:15;;;;;;;4.95;2.10;;;;;;;5.73;36.99;94867.84;5010122;28;20112;-76
2022/01/31 11:53:09;;;;;;;9.10;2.90;;;;;;;5.77;37.91;94858.56;5027451;28;20034;-76
2022/01/31 11:55:38;;;;;;;8.48;2.85;;;;;;;5.84;37.73;94852.56;5026514;28;20037;-75
2022/01/31 11:58:07;;;;;;;7.07;2.95;;;;;;;5.89;38.46;94850.28;5027620;28;20048;-78
2022/01/31 12:00:38;;;;;;;9.32;2.10;;;;;;;5.99;36.27;94860.78;5009003;28;20029;-79
2022/01/31 12:03:05;;;;;;;4.50;2.35;;;;;;;6.01;36.37;94845.50;5010434;28;20030;-78
2022/01/31 12:05:33;;;;;;;9.60;3.15;;;;;;;6.05;36.94;94833.53;5025924;28;20547;-79
2022/01/31 12:08:11;;;;;;;5.07;2.55;;;;;;;5.98;37.38;94825.34;5026059;28;20021;-77
2022/01/31 12:10:46;;;;;;;7.40;2.28;;;;;;;6.10;36.93;94819.72;5027887;28;20419;-75
2022/01/31 12:13:38;;;;;;;8.18;2.80;;;;;;;6.15;37.33;94831.56;5025158;28;20032;-77